St Petersburg Clearwater International Airport
KPIE : now visible

Airfield :











YOU CAN JOIN US ON...

 
LOGIN :

Register | Disclaimer

   EN    FR    IT 

 









Legend :    VFR   Marginal VFR   IFR   Intensive IFR   Very Intensive IFR
Visi :
Ceiling :
>= 8 km
>= 3000ft
5 to 8 km
1000 to 3000 ft
1500m to 5 km
500 to 1000 ft
800 to 1500m
200 to 500 ft
< 800m
< 200 ft
Symbols :   Thunderstorms  Fog  Heavy snow  Heavy precipitations  Wind > 20 kt






- Airport Elevation : 11 ft
- IATA code : PIE


KPIE - St Petersburg Clearwater International

CURRENT METAR :
  • 150809Z AUTO 00000KT 5SM BR CLR 13/12 A3003 RMK AO2 T01280117

EXPIRED METARs :
  • 150753Z AUTO 00000KT 2 1/2SM BR CLR 12/12 A3003 RMK AO2 VIS 1V5 SLP169 T01170117
  • 150653Z AUTO 00000KT 4SM BR CLR 13/12 A3003 RMK AO2 SLP168 T01330117
  • 150553Z AUTO 19003KT 10SM CLR 13/13 A3003 RMK AO2 SLP168 T01330133 10183 20128 51009

TAF KPIE
Valid from the 15 at 08:00 until the 16 at 06:00 UTC


150802Z 1508/1606 VRB03KT 5SM BR SKC
TEMPO 1508/1512 2SM BR
FM151400 09006KT P6SM SKC
FM152200 16006KT P6SM SKC
FM160300 10005KT P6SM FEW035



MET'MAP, your aeronautical weather chart ! - Copyright ORBIFLY December 2007 - Disclaimer

ORBIFLY MET'MAP TEAM :

Programming & Development : Alexandra Zaïnal
Concept & original design : Baudouin d'Aumeries
Assistance for programming : Marc-Olivier Méhu
Technical & hardware support : Manuel Goepfert

Contact : metmap@orbifly.com




SOURCES & CREDITS :

   NOAA       Earth
Advisory